Time;durP1;ratioP1;P1;durP2;ratioP2;P2;SDS_P1;SDS_P2;PMS_P1;PMS_P2;Temp;Humidity;BMP_temperature;BMP_pressure;BME280_temperature;BME280_humidity;BME280_pressure;Samples;Min_cycle;Max_cycle;Signal;HPM_P1;HPM_P2
2022/10/24 00:00:49;;;;;;;9.98;4.70;;;14.40;99.90;;;;;;4993571;28;20053;-72
2022/10/24 00:03:15;;;;;;;14.68;3.47;;;14.30;99.90;;;;;;4993618;28;20034;-72
2022/10/24 00:05:46;;;;;;;8.93;2.63;;;14.10;99.90;;;;;;4991331;28;20027;-72
2022/10/24 00:08:13;;;;;;;9.00;3.83;;;14.00;99.90;;;;;;4993466;28;20396;-72
2022/10/24 00:10:44;;;;;;;8.77;5.25;;;14.00;99.90;;;;;;4992747;28;20030;-71
2022/10/24 00:13:13;;;;;;;8.90;3.85;;;13.90;99.90;;;;;;4993601;28;20403;-72
2022/10/24 00:15:44;;;;;;;8.57;3.25;;;13.90;99.90;;;;;;4991394;28;20205;-71
2022/10/24 00:18:10;;;;;;;6.78;2.50;;;13.70;99.90;;;;;;4993100;28;20065;-72
2022/10/24 00:20:37;;;;;;;6.57;3.22;;;13.70;99.90;;;;;;4991591;28;20065;-73
2022/10/24 00:23:03;;;;;;;7.70;3.25;;;13.60;99.90;;;;;;4993596;28;20460;-72
2022/10/24 00:25:29;;;;;;;10.95;2.92;;;13.60;99.90;;;;;;4991028;28;20053;-73
2022/10/24 00:27:55;;;;;;;6.20;3.08;;;13.60;99.90;;;;;;4993148;28;20038;-73
2022/10/24 00:30:22;;;;;;;8.60;3.17;;;13.60;99.90;;;;;;4991076;28;20043;-76
2022/10/24 00:32:50;;;;;;;11.40;3.65;;;13.60;99.90;;;;;;4991631;28;20034;-73
2022/10/24 00:35:16;;;;;;;6.68;3.58;;;13.60;99.90;;;;;;4990441;28;20041;-71
2022/10/24 00:37:42;;;;;;;8.40;3.00;;;13.60;99.90;;;;;;4992266;28;20037;-72
2022/10/24 00:40:10;;;;;;;8.45;2.95;;;13.50;99.90;;;;;;4991984;28;20045;-73
2022/10/24 00:42:36;;;;;;;11.57;3.28;;;13.40;99.90;;;;;;4992305;28;20034;-72
2022/10/24 00:45:44;;;;;;;10.23;3.45;;;13.50;99.90;;;;;;4991619;28;20035;-72
2022/10/24 00:48:34;;;;;;;12.68;3.78;;;13.50;99.90;;;;;;4993063;28;20045;-72
2022/10/24 00:51:05;;;;;;;9.15;3.22;;;13.50;99.90;;;;;;4990875;28;20050;-71
2022/10/24 00:53:34;;;;;;;15.40;3.63;;;13.50;99.90;;;;;;4992202;28;20418;-73
2022/10/24 00:56:04;;;;;;;10.35;4.35;;;13.50;99.90;;;;;;4991653;28;20039;-73
2022/10/24 00:58:32;;;;;;;8.93;3.40;;;13.40;99.90;;;;;;4991738;28;20388;-73
2022/10/24 01:00:59;;;;;;;12.02;3.70;;;13.50;99.90;;;;;;4992558;28;20041;-73
2022/10/24 01:03:25;;;;;;;8.95;3.75;;;13.50;99.90;;;;;;4991829;28;20452;-74
2022/10/24 01:06:10;;;;;;;7.15;3.10;;;13.40;99.90;;;;;;4991137;28;20035;-71
2022/10/24 01:09:03;;;;;;;16.65;4.03;;;13.50;99.90;;;;;;4990686;28;20038;-72
2022/10/24 01:11:43;;;;;;;9.15;3.22;;;13.50;99.90;;;;;;4991741;28;20030;-72
2022/10/24 01:14:49;;;;;;;9.90;3.47;;;13.50;99.90;;;;;;4991438;28;20499;-72
2022/10/24 01:17:40;;;;;;;7.43;3.45;;;13.40;99.90;;;;;;4992608;28;20034;-73
2022/10/24 01:20:24;;;;;;;13.00;3.10;;;13.40;99.90;;;;;;4992516;28;20388;-72
2022/10/24 01:23:18;;;;;;;8.00;2.72;;;13.40;99.90;;;;;;4992337;28;20041;-72
2022/10/24 01:26:15;;;;;;;10.48;3.15;;;13.50;99.90;;;;;;4989325;28;20283;-72
2022/10/24 01:29:15;;;;;;;8.73;4.13;;;13.50;99.90;;;;;;4992521;28;20053;-72
2022/10/24 01:31:50;;;;;;;17.50;2.92;;;13.50;99.90;;;;;;4991683;28;20046;-72
2022/10/24 01:34:24;;;;;;;12.85;3.38;;;13.60;99.90;;;;;;4990159;28;20049;-76
2022/10/24 01:36:59;;;;;;;5.70;2.67;;;13.80;99.90;;;;;;4980622;28;20037;-72
2022/10/24 01:39:31;;;;;;;10.00;3.92;;;13.90;99.90;;;;;;4991701;28;20034;-77
2022/10/24 01:41:59;;;;;;;5.35;2.50;;;14.00;99.90;;;;;;4992425;28;20038;-72
2022/10/24 01:44:31;;;;;;;10.30;2.70;;;14.10;99.90;;;;;;4991781;28;20035;-76
2022/10/24 01:47:04;;;;;;;8.43;2.42;;;14.10;99.90;;;;;;5005112;28;20047;-72
2022/10/24 01:49:35;;;;;;;8.48;2.40;;;14.20;99.90;;;;;;4984902;28;20046;-73
2022/10/24 01:52:08;;;;;;;8.02;2.97;;;14.40;99.90;;;;;;4992327;28;20037;-71
2022/10/24 01:54:37;;;;;;;6.45;2.92;;;14.40;99.90;;;;;;4990789;28;20050;-72
2022/10/24 01:57:04;;;;;;;10.20;2.85;;;14.40;99.90;;;;;;5005318;28;20049;-72
2022/10/24 01:59:30;;;;;;;10.82;2.42;;;14.30;99.90;;;;;;4981109;28;20369;-76
2022/10/24 02:02:09;;;;;;;8.93;3.00;;;14.20;99.90;;;;;;4979468;28;20049;-73
2022/10/24 02:04:40;;;;;;;6.03;2.00;;;14.10;99.90;;;;;;4991687;28;20030;-72
2022/10/24 02:07:10;;;;;;;6.35;2.58;;;14.10;99.90;;;;;;4992065;28;20061;-72
2022/10/24 02:09:38;;;;;;;6.30;2.25;;;14.10;99.90;;;;;;4991506;28;20042;-71
2022/10/24 02:12:08;;;;;;;7.72;2.67;;;14.10;99.90;;;;;;4990778;28;20057;-72
2022/10/24 02:14:44;;;;;;;6.37;2.70;;;14.10;99.90;;;;;;4994857;28;20046;-72
2022/10/24 02:17:11;;;;;;;9.82;2.75;;;14.20;99.90;;;;;;4995773;28;20038;-70
2022/10/24 02:19:37;;;;;;;11.70;2.55;;;14.30;99.90;;;;;;4993924;28;20030;-73
2022/10/24 02:22:20;;;;;;;9.48;2.35;;;14.50;99.90;;;;;;4994181;28;20038;-71
2022/10/24 02:25:05;;;;;;;8.13;3.00;;;14.50;99.90;;;;;;4989462;28;20042;-72
2022/10/24 02:27:49;;;;;;;6.05;1.88;;;14.50;99.90;;;;;;4995163;28;20038;-72
2022/10/24 02:30:19;;;;;;;10.93;3.05;;;14.40;99.90;;;;;;4995720;28;20041;-72
2022/10/24 02:32:50;;;;;;;6.90;2.95;;;14.30;99.90;;;;;;4993092;28;20460;-72
2022/10/24 02:35:18;;;;;;;8.68;3.72;;;14.40;99.90;;;;;;4995336;28;20042;-73
2022/10/24 02:37:56;;;;;;;6.22;1.95;;;14.40;99.90;;;;;;4994801;28;20042;-72
2022/10/24 02:40:23;;;;;;;6.53;2.55;;;14.40;99.90;;;;;;4995387;28;20034;-72
2022/10/24 02:42:53;;;;;;;4.63;2.55;;;14.40;99.90;;;;;;4992090;28;20039;-73
2022/10/24 02:45:20;;;;;;;5.03;2.13;;;14.40;99.90;;;;;;4995398;28;20470;-73
2022/10/24 02:47:49;;;;;;;9.68;2.60;;;14.40;99.90;;;;;;4994666;28;20578;-73
2022/10/24 02:50:15;;;;;;;9.32;2.20;;;14.40;99.90;;;;;;4995082;28;20051;-73
2022/10/24 02:52:43;;;;;;;9.57;2.35;;;14.30;99.90;;;;;;4992930;28;20030;-72
2022/10/24 02:55:10;;;;;;;7.22;2.25;;;14.20;99.90;;;;;;4996938;28;20042;-72
2022/10/24 02:57:37;;;;;;;8.20;2.25;;;14.10;99.90;;;;;;4994290;28;20356;-72
2022/10/24 03:00:04;;;;;;;7.50;2.60;;;14.00;99.90;;;;;;4974186;28;20369;-72
2022/10/24 03:02:30;;;;;;;5.78;2.38;;;13.90;99.90;;;;;;4990867;28;20494;-73
2022/10/24 03:04:56;;;;;;;8.32;2.88;;;13.80;99.90;;;;;;4994917;28;20500;-73
2022/10/24 03:07:22;;;;;;;6.18;2.10;;;13.80;99.90;;;;;;4995031;28;20038;-72
2022/10/24 03:09:49;;;;;;;7.07;2.92;;;13.70;99.90;;;;;;4994668;28;20039;-73
2022/10/24 03:12:16;;;;;;;6.43;2.60;;;13.60;99.90;;;;;;4994946;28;20037;-72
2022/10/24 03:14:42;;;;;;;7.13;2.55;;;13.60;99.90;;;;;;5009456;28;20042;-73
2022/10/24 03:17:08;;;;;;;4.72;2.22;;;13.50;99.90;;;;;;5010189;28;20046;-73
2022/10/24 03:19:35;;;;;;;5.65;1.85;;;13.40;99.90;;;;;;4993819;28;20034;-73
2022/10/24 03:22:01;;;;;;;11.80;3.28;;;13.30;99.90;;;;;;4993298;28;20050;-71
2022/10/24 03:24:27;;;;;;;7.93;3.10;;;13.30;99.90;;;;;;4992680;28;20041;-77
2022/10/24 03:26:53;;;;;;;10.88;2.80;;;13.20;99.90;;;;;;4994169;28;20054;-74
2022/10/24 03:29:20;;;;;;;7.68;2.35;;;13.20;99.90;;;;;;4994197;28;20026;-72
2022/10/24 03:31:46;;;;;;;6.38;2.70;;;13.20;99.90;;;;;;4992044;28;20030;-72
2022/10/24 03:34:12;;;;;;;5.60;2.67;;;13.20;99.90;;;;;;4994371;28;20057;-73
2022/10/24 03:36:38;;;;;;;7.00;2.55;;;13.20;99.90;;;;;;4993607;28;20034;-72
2022/10/24 03:39:04;;;;;;;5.47;2.25;;;13.30;99.90;;;;;;4988284;28;20357;-72
2022/10/24 03:41:31;;;;;;;9.60;3.10;;;13.40;99.90;;;;;;4991121;28;20042;-75
2022/10/24 03:43:57;;;;;;;6.88;2.95;;;13.40;99.90;;;;;;4993637;28;20026;-73
2022/10/24 03:46:23;;;;;;;5.15;2.35;;;13.60;99.90;;;;;;4993952;28;20030;-72
2022/10/24 03:48:49;;;;;;;5.85;2.42;;;13.70;99.90;;;;;;4993295;28;20041;-71
2022/10/24 03:51:15;;;;;;;8.68;2.92;;;13.80;99.90;;;;;;4993655;28;20042;-73
2022/10/24 03:53:41;;;;;;;11.52;4.63;;;13.90;99.90;;;;;;4990009;28;20046;-72
2022/10/24 03:56:07;;;;;;;8.63;3.00;;;14.10;99.90;;;;;;4990178;28;20038;-72
2022/10/24 03:58:34;;;;;;;6.50;2.60;;;14.30;99.90;;;;;;4993034;28;20034;-72
2022/10/24 04:01:00;;;;;;;6.50;2.83;;;14.30;99.90;;;;;;4993719;28;20475;-72
2022/10/24 04:03:27;;;;;;;10.57;2.80;;;14.40;99.90;;;;;;4992159;28;20034;-74
2022/10/24 04:05:53;;;;;;;12.63;3.83;;;14.50;99.90;;;;;;4992973;28;20031;-73
2022/10/24 04:08:19;;;;;;;8.20;2.78;;;14.70;99.90;;;;;;4993359;28;20395;-73
2022/10/24 04:10:47;;;;;;;12.68;2.45;;;14.80;99.90;;;;;;4993009;28;20376;-72
2022/10/24 04:13:14;;;;;;;7.72;2.33;;;14.90;99.90;;;;;;4992300;28;20034;-71
2022/10/24 04:15:40;;;;;;;9.77;2.55;;;15.00;99.90;;;;;;4992598;28;20041;-72
2022/10/24 04:18:07;;;;;;;11.02;2.03;;;15.10;99.90;;;;;;4993562;28;20488;-72
2022/10/24 04:20:34;;;;;;;3.53;1.88;;;15.00;99.90;;;;;;4991288;28;20034;-73
2022/10/24 04:23:00;;;;;;;6.97;2.05;;;15.00;99.90;;;;;;4991571;28;20041;-73
2022/10/24 04:25:26;;;;;;;7.22;1.95;;;15.00;99.90;;;;;;4992690;28;20039;-77
2022/10/24 04:27:52;;;;;;;7.82;2.38;;;14.90;99.90;;;;;;4991670;28;20046;-72
2022/10/24 04:30:19;;;;;;;6.18;2.17;;;14.80;99.90;;;;;;4991955;28;20049;-72
2022/10/24 04:32:45;;;;;;;8.05;2.22;;;14.80;99.90;;;;;;4990600;28;20035;-72
2022/10/24 04:35:12;;;;;;;10.98;2.40;;;14.90;99.90;;;;;;4992692;28;20030;-71
2022/10/24 04:37:38;;;;;;;6.00;2.80;;;14.90;99.90;;;;;;4990905;28;20038;-73
2022/10/24 04:40:05;;;;;;;7.82;3.40;;;15.00;99.90;;;;;;4992816;28;20034;-72
2022/10/24 04:42:31;;;;;;;12.05;3.03;;;15.10;99.90;;;;;;4990860;28;20034;-73
2022/10/24 04:44:57;;;;;;;11.27;3.42;;;15.10;99.90;;;;;;4992850;28;20086;-73
2022/10/24 04:47:24;;;;;;;9.00;2.53;;;15.20;99.90;;;;;;4992786;28;20045;-72
2022/10/24 04:49:50;;;;;;;13.13;3.35;;;15.20;99.90;;;;;;4991797;28;20061;-73
2022/10/24 04:52:16;;;;;;;10.93;3.38;;;15.20;99.90;;;;;;4991146;28;20041;-71
2022/10/24 04:54:42;;;;;;;10.00;3.10;;;15.10;99.90;;;;;;4991014;28;20034;-73
2022/10/24 04:57:08;;;;;;;9.65;3.60;;;15.10;99.90;;;;;;4992457;28;20491;-73
2022/10/24 04:59:34;;;;;;;5.38;2.83;;;15.20;99.90;;;;;;4991664;28;20045;-71
2022/10/24 05:02:00;;;;;;;5.40;2.38;;;15.20;99.90;;;;;;4989103;28;20042;-71
2022/10/24 05:04:27;;;;;;;8.50;2.60;;;15.10;99.90;;;;;;4992016;28;20038;-71
2022/10/24 05:06:53;;;;;;;11.00;2.70;;;15.00;99.90;;;;;;4991380;28;20364;-72
2022/10/24 05:09:22;;;;;;;9.85;2.88;;;14.90;99.90;;;;;;4993047;28;20033;-72
2022/10/24 05:11:48;;;;;;;11.48;2.45;;;14.90;99.90;;;;;;4993818;28;20038;-73
2022/10/24 05:14:14;;;;;;;7.68;2.10;;;14.80;99.90;;;;;;4989954;28;20038;-72
2022/10/24 05:16:40;;;;;;;9.63;3.50;;;14.70;99.90;;;;;;4990822;28;20030;-75
2022/10/24 05:19:06;;;;;;;10.30;2.45;;;14.60;99.90;;;;;;4992846;28;20037;-74
2022/10/24 05:21:33;;;;;;;7.75;2.35;;;14.60;99.90;;;;;;4988736;28;20045;-75
2022/10/24 05:23:59;;;;;;;5.97;1.80;;;14.60;99.90;;;;;;4992076;28;20026;-74
2022/10/24 05:26:25;;;;;;;10.38;2.75;;;14.70;99.90;;;;;;4992083;28;20035;-74
2022/10/24 05:28:51;;;;;;;9.68;2.40;;;14.80;99.90;;;;;;4990131;28;20471;-72
2022/10/24 05:31:17;;;;;;;6.78;2.13;;;14.80;99.90;;;;;;4990129;28;20034;-73
2022/10/24 05:33:44;;;;;;;5.78;2.50;;;14.70;99.90;;;;;;4989580;28;20038;-73
2022/10/24 05:36:10;;;;;;;8.95;2.35;;;14.60;99.90;;;;;;4991948;28;20034;-73
2022/10/24 05:38:36;;;;;;;6.07;1.98;;;14.50;99.90;;;;;;4991272;28;20056;-73
2022/10/24 05:41:02;;;;;;;5.70;1.83;;;14.50;99.90;;;;;;4991940;28;20471;-74
2022/10/24 05:43:28;;;;;;;10.63;2.97;;;14.50;99.90;;;;;;4990961;28;20061;-76
2022/10/24 05:45:54;;;;;;;8.13;2.05;;;14.60;99.90;;;;;;4990207;28;20034;-73
2022/10/24 05:48:21;;;;;;;8.07;2.08;;;14.70;99.90;;;;;;4994016;28;20399;-73
2022/10/24 05:50:47;;;;;;;10.80;2.50;;;14.80;99.90;;;;;;4993870;28;20047;-70
2022/10/24 05:53:13;;;;;;;7.00;2.83;;;15.00;99.90;;;;;;4994499;28;20049;-72
2022/10/24 05:55:39;;;;;;;7.88;2.97;;;15.10;99.90;;;;;;4995157;28;20369;-72
2022/10/24 05:58:06;;;;;;;8.13;2.50;;;15.20;99.90;;;;;;4994122;28;20052;-72
2022/10/24 06:00:32;;;;;;;12.55;3.10;;;15.20;99.90;;;;;;4995302;28;20034;-71
2022/10/24 06:02:59;;;;;;;7.15;3.03;;;15.20;99.90;;;;;;4994507;28;20034;-72
2022/10/24 06:05:26;;;;;;;11.13;3.13;;;15.30;99.90;;;;;;4995677;28;20034;-72
2022/10/24 06:07:52;;;;;;;10.35;2.53;;;15.40;99.90;;;;;;4987847;28;20057;-71
2022/10/24 06:10:18;;;;;;;7.35;2.85;;;15.60;99.90;;;;;;4995400;28;20030;-70
2022/10/24 06:12:44;;;;;;;9.25;2.53;;;15.60;99.90;;;;;;4993267;28;20053;-71
2022/10/24 06:15:12;;;;;;;8.10;2.42;;;15.60;99.90;;;;;;4993918;28;20155;-70
2022/10/24 06:17:38;;;;;;;8.63;3.22;;;15.50;99.90;;;;;;4994809;28;20388;-72
2022/10/24 06:20:04;;;;;;;11.50;2.53;;;15.50;99.90;;;;;;4994178;28;20038;-73
2022/10/24 06:22:31;;;;;;;9.25;3.25;;;15.50;99.90;;;;;;4993710;28;20038;-76
2022/10/24 06:24:57;;;;;;;15.27;2.67;;;15.50;99.90;;;;;;4994809;28;20037;-73
2022/10/24 06:27:23;;;;;;;10.30;2.63;;;15.60;99.90;;;;;;4995129;28;20038;-73
2022/10/24 06:29:49;;;;;;;13.40;2.58;;;15.70;99.90;;;;;;4994860;28;20035;-73
2022/10/24 06:32:15;;;;;;;9.05;3.30;;;15.80;99.90;;;;;;4993917;28;20030;-72
2022/10/24 06:34:42;;;;;;;10.98;2.72;;;15.90;99.90;;;;;;4994458;28;20046;-73
2022/10/24 06:37:08;;;;;;;10.48;3.55;;;16.00;99.90;;;;;;4995182;28;20042;-73
2022/10/24 06:39:34;;;;;;;13.05;2.92;;;15.90;99.90;;;;;;4994884;28;20034;-76
2022/10/24 06:42:00;;;;;;;12.73;2.80;;;16.00;99.90;;;;;;4993709;28;20035;-73
2022/10/24 06:44:26;;;;;;;10.25;3.35;;;16.10;99.90;;;;;;4995462;28;20057;-73
2022/10/24 06:46:53;;;;;;;7.13;3.05;;;16.10;99.90;;;;;;4994082;28;20030;-73
2022/10/24 06:49:19;;;;;;;7.72;2.28;;;16.10;99.90;;;;;;4994876;28;20053;-72
2022/10/24 06:51:45;;;;;;;7.57;2.60;;;16.20;99.90;;;;;;4992825;28;20030;-71
2022/10/24 06:54:11;;;;;;;8.10;2.67;;;16.20;99.90;;;;;;4994977;28;20379;-72
2022/10/24 06:56:37;;;;;;;9.32;2.63;;;16.30;99.90;;;;;;4994326;28;20031;-74
2022/10/24 06:59:09;;;;;;;11.10;3.63;;;16.30;99.90;;;;;;4993575;28;20043;-73
2022/10/24 07:01:35;;;;;;;13.57;3.50;;;16.30;99.90;;;;;;4986778;28;20038;-75
2022/10/24 07:04:01;;;;;;;10.40;3.08;;;16.30;99.90;;;;;;4994915;28;20030;-73
2022/10/24 07:06:29;;;;;;;12.52;2.67;;;16.30;99.90;;;;;;4994962;28;20037;-73
2022/10/24 07:08:58;;;;;;;8.15;2.78;;;16.20;99.90;;;;;;4992443;28;20038;-72
2022/10/24 07:11:24;;;;;;;9.75;2.83;;;16.20;99.90;;;;;;4993242;28;20046;-73
2022/10/24 07:13:50;;;;;;;14.25;3.25;;;16.20;99.90;;;;;;4993772;28;20038;-74
2022/10/24 07:16:17;;;;;;;8.70;2.75;;;16.20;99.90;;;;;;4994452;28;20045;-74
2022/10/24 07:18:43;;;;;;;9.65;2.55;;;16.20;99.90;;;;;;4994029;28;20034;-74
2022/10/24 07:21:14;;;;;;;13.98;4.45;;;16.20;99.90;;;;;;4993082;28;20037;-73
2022/10/24 07:23:40;;;;;;;9.65;2.75;;;16.20;99.90;;;;;;4993919;28;20045;-74
2022/10/24 07:26:12;;;;;;;16.95;3.17;;;16.30;99.90;;;;;;4993140;28;20038;-73
2022/10/24 07:28:39;;;;;;;5.28;2.20;;;16.30;99.90;;;;;;4992201;28;20034;-76
2022/10/24 07:31:06;;;;;;;7.80;2.58;;;16.40;99.90;;;;;;5010960;28;20038;-74
2022/10/24 07:33:35;;;;;;;9.23;3.35;;;16.40;99.90;;;;;;5010705;28;20033;-74
2022/10/24 07:36:01;;;;;;;9.90;2.20;;;16.40;99.90;;;;;;4995340;28;20034;-73
2022/10/24 07:38:27;;;;;;;8.88;2.88;;;16.40;99.90;;;;;;4993796;28;20038;-73
2022/10/24 07:40:53;;;;;;;9.63;2.35;;;16.50;99.90;;;;;;4989180;28;20030;-72
2022/10/24 07:43:20;;;;;;;11.57;2.78;;;16.50;99.90;;;;;;4992699;28;20050;-71
2022/10/24 07:45:46;;;;;;;6.60;2.65;;;16.50;99.90;;;;;;4992626;28;20038;-72
2022/10/24 07:48:12;;;;;;;6.05;2.35;;;16.60;99.90;;;;;;4994059;28;20049;-73
2022/10/24 07:50:44;;;;;;;15.48;3.22;;;16.60;99.90;;;;;;4993866;28;20066;-73
2022/10/24 07:53:11;;;;;;;10.57;2.40;;;16.60;99.90;;;;;;4992959;28;20387;-73
2022/10/24 07:55:39;;;;;;;7.72;2.03;;;16.60;99.90;;;;;;4992463;28;20384;-75
2022/10/24 07:58:06;;;;;;;7.95;1.80;;;16.50;99.90;;;;;;4993891;28;20035;-72
2022/10/24 08:00:33;;;;;;;6.93;2.67;;;16.50;99.90;;;;;;4993959;28;20488;-73
2022/10/24 08:03:00;;;;;;;5.22;2.08;;;16.60;99.90;;;;;;4991801;28;20041;-73
2022/10/24 08:05:26;;;;;;;9.68;2.10;;;16.60;99.90;;;;;;4994063;28;20050;-73
2022/10/24 08:07:52;;;;;;;10.82;1.63;;;16.70;99.90;;;;;;4993247;28;20061;-73
2022/10/24 08:10:18;;;;;;;9.68;2.33;;;16.80;99.90;;;;;;4993163;28;20034;-74
2022/10/24 08:12:45;;;;;;;6.07;1.83;;;16.80;99.90;;;;;;4991850;28;20376;-73
2022/10/24 08:15:11;;;;;;;10.80;2.08;;;16.90;99.90;;;;;;4992415;28;20037;-74
2022/10/24 08:17:37;;;;;;;5.60;1.98;;;16.90;99.90;;;;;;4986996;28;20057;-79
2022/10/24 08:20:07;;;;;;;6.63;3.33;;;16.90;99.90;;;;;;4993848;28;20034;-73
2022/10/24 08:22:34;;;;;;;9.10;3.17;;;16.80;99.90;;;;;;4992165;28;20030;-73
2022/10/24 08:25:01;;;;;;;8.38;2.35;;;16.80;99.90;;;;;;4994172;28;20034;-73
2022/10/24 08:27:28;;;;;;;7.18;2.00;;;16.90;99.90;;;;;;4992276;28;20469;-73
2022/10/24 08:29:54;;;;;;;8.60;1.70;;;16.90;99.90;;;;;;4993086;28;20026;-73
2022/10/24 08:32:21;;;;;;;5.68;1.80;;;16.90;99.90;;;;;;4991817;28;20033;-73
2022/10/24 08:34:47;;;;;;;9.13;2.15;;;16.90;99.90;;;;;;4992981;28;20045;-73
2022/10/24 08:37:13;;;;;;;12.65;3.53;;;17.00;99.90;;;;;;4993539;28;20030;-72
2022/10/24 08:39:39;;;;;;;7.75;3.17;;;16.90;99.90;;;;;;4992694;28;20042;-74
2022/10/24 08:42:10;;;;;;;11.13;6.45;;;17.00;99.90;;;;;;4992077;28;20038;-73
2022/10/24 08:44:39;;;;;;;8.73;2.80;;;17.00;99.90;;;;;;4994004;28;20387;-72
2022/10/24 08:47:30;;;;;;;7.80;3.28;;;17.00;99.90;;;;;;4993168;28;20034;-74
2022/10/24 08:49:59;;;;;;;6.45;1.88;;;17.10;99.90;;;;;;4992830;28;20050;-73
2022/10/24 08:52:47;;;;;;;6.75;2.55;;;17.10;99.90;;;;;;4999653;28;20492;-73
2022/10/24 08:55:19;;;;;;;7.10;2.63;;;17.10;99.90;;;;;;4993042;28;20034;-73
2022/10/24 08:57:54;;;;;;;5.32;2.70;;;17.10;99.90;;;;;;4991269;28;20038;-73
2022/10/24 09:00:23;;;;;;;13.38;5.65;;;17.10;99.90;;;;;;4993007;28;20031;-73
2022/10/24 09:03:02;;;;;;;23.73;12.30;;;17.10;99.90;;;;;;4989073;28;20050;-74
2022/10/24 09:05:44;;;;;;;14.10;6.47;;;17.20;99.90;;;;;;4992849;28;20034;-73
2022/10/24 09:08:32;;;;;;;10.50;3.33;;;17.20;99.90;;;;;;4992825;28;20038;-73
2022/10/24 09:11:01;;;;;;;7.35;2.67;;;17.60;99.90;;;;;;4990602;28;20200;-74
2022/10/24 09:13:29;;;;;;;7.22;2.13;;;18.20;99.90;;;;;;4992931;28;20043;-72
2022/10/24 09:15:56;;;;;;;7.63;1.45;;;18.20;99.90;;;;;;4992408;28;20041;-73
2022/10/24 09:18:37;;;;;;;11.00;2.75;;;18.10;99.90;;;;;;4992725;28;20042;-74
2022/10/24 09:21:07;;;;;;;6.88;2.65;;;18.10;99.90;;;;;;4989408;28;20030;-74
2022/10/24 09:23:36;;;;;;;7.43;2.08;;;18.10;99.90;;;;;;4991937;28;20045;-73
2022/10/24 09:26:06;;;;;;;10.77;1.92;;;17.90;99.90;;;;;;4991918;28;20030;-74
2022/10/24 09:28:36;;;;;;;15.68;9.02;;;17.90;99.90;;;;;;4992461;28;20494;-74
2022/10/24 09:31:12;;;;;;;11.70;2.58;;;18.00;99.90;;;;;;4990558;28;20034;-72
2022/10/24 09:33:41;;;;;;;6.68;2.13;;;18.30;99.90;;;;;;4978256;28;20491;-72
2022/10/24 09:36:12;;;;;;;6.57;2.70;;;18.40;99.90;;;;;;4992503;28;20373;-72
2022/10/24 09:38:41;;;;;;;6.45;1.55;;;18.50;99.90;;;;;;4992774;28;20038;-72
2022/10/24 09:41:21;;;;;;;6.97;1.95;;;18.50;99.90;;;;;;4984758;28;20039;-73
2022/10/24 09:43:53;;;;;;;4.93;2.25;;;18.40;99.90;;;;;;4987169;28;20042;-73
2022/10/24 09:46:35;;;;;;;5.03;2.03;;;18.10;99.90;;;;;;4992329;28;20038;-72
2022/10/24 09:49:21;;;;;;;9.80;2.30;;;18.00;99.90;;;;;;4991460;28;20479;-72
2022/10/24 09:51:58;;;;;;;7.38;2.22;;;17.90;99.90;;;;;;4990595;28;20034;-74
2022/10/24 09:54:29;;;;;;;6.03;1.67;;;18.00;99.90;;;;;;4992367;28;20031;-73
2022/10/24 09:57:07;;;;;;;8.82;3.38;;;18.10;99.90;;;;;;4990270;28;20046;-73
2022/10/24 09:59:40;;;;;;;7.47;2.35;;;18.10;99.90;;;;;;4991071;28;20053;-73
2022/10/24 10:02:13;;;;;;;6.88;1.90;;;18.10;99.90;;;;;;4989264;28;20051;-72
2022/10/24 10:04:40;;;;;;;7.40;2.50;;;18.10;99.90;;;;;;4992128;28;20041;-73
2022/10/24 10:07:18;;;;;;;6.18;1.42;;;18.00;99.90;;;;;;4991912;28;20030;-73
2022/10/24 10:09:57;;;;;;;3.85;1.58;;;17.90;99.90;;;;;;4991371;28;20038;-72
2022/10/24 10:12:32;;;;;;;7.35;1.85;;;17.90;99.90;;;;;;4990572;28;20037;-72
2022/10/24 10:15:01;;;;;;;3.67;1.55;;;17.90;99.90;;;;;;5005968;28;20041;-73
2022/10/24 10:17:31;;;;;;;4.45;1.65;;;17.90;99.90;;;;;;4985912;28;20034;-72
2022/10/24 10:19:58;;;;;;;13.35;3.05;;;18.00;99.90;;;;;;4985714;28;20042;-73
2022/10/24 10:22:28;;;;;;;8.43;1.88;;;18.00;99.90;;;;;;4970041;28;20054;-73
2022/10/24 10:24:56;;;;;;;7.00;2.00;;;18.10;99.90;;;;;;4985239;28;20042;-74
2022/10/24 10:27:38;;;;;;;7.28;2.03;;;17.90;99.90;;;;;;4986451;28;20038;-72
2022/10/24 10:30:16;;;;;;;6.03;1.40;;;18.00;99.90;;;;;;4987426;28;20048;-73
2022/10/24 10:33:17;;;;;;;5.63;1.95;;;18.00;99.90;;;;;;4990067;28;20034;-75
2022/10/24 10:35:46;;;;;;;4.60;1.67;;;17.90;99.90;;;;;;5009004;28;20053;-73
2022/10/24 10:38:38;;;;;;;4.28;1.95;;;18.00;99.90;;;;;;4995656;28;20464;-73
2022/10/24 10:41:21;;;;;;;4.45;1.65;;;18.20;99.90;;;;;;4992202;28;20118;-73
2022/10/24 10:44:11;;;;;;;4.15;1.45;;;18.50;99.90;;;;;;4994970;28;20046;-73
2022/10/24 10:47:07;;;;;;;9.53;2.83;;;18.60;99.90;;;;;;4991344;28;20034;-74
2022/10/24 10:49:38;;;;;;;5.95;2.00;;;18.60;99.90;;;;;;4995025;28;20054;-72
2022/10/24 10:52:19;;;;;;;9.45;2.70;;;18.30;99.90;;;;;;4993407;28;20038;-73
2022/10/24 10:55:12;;;;;;;7.68;2.47;;;18.30;99.90;;;;;;4994696;28;20038;-72
2022/10/24 10:57:55;;;;;;;5.53;2.05;;;18.30;99.90;;;;;;4994834;28;20389;-72
2022/10/24 11:00:33;;;;;;;13.27;5.38;;;18.20;99.90;;;;;;4995086;28;20038;-72
2022/10/24 11:03:08;;;;;;;9.88;4.07;;;18.20;99.90;;;;;;4993323;28;20026;-73
2022/10/24 11:05:39;;;;;;;6.15;2.50;;;18.10;99.90;;;;;;4995198;28;20035;-73
2022/10/24 11:08:14;;;;;;;;;;;18.00;99.90;;;;;;4994901;28;20045;-73
2022/10/24 11:10:47;;;;;;;4.45;1.95;;;18.00;99.90;;;;;;4993987;28;19918;-74
2022/10/24 11:13:25;;;;;;;6.20;1.92;;;18.00;99.90;;;;;;4994880;28;20039;-73
2022/10/24 11:15:55;;;;;;;5.85;2.50;;;18.10;99.90;;;;;;5008553;28;20043;-74
2022/10/24 11:18:26;;;;;;;9.85;2.17;;;18.20;99.90;;;;;;4994829;28;20049;-73
2022/10/24 11:21:07;;;;;;;5.43;1.88;;;18.40;99.90;;;;;;4992624;28;20030;-73
2022/10/24 11:24:00;;;;;;;9.18;1.83;;;18.60;99.90;;;;;;4994705;28;20034;-72
2022/10/24 11:26:49;;;;;;;2.78;1.95;;;18.80;99.90;;;;;;4990081;28;20038;-71
2022/10/24 11:29:38;;;;;;;6.10;1.50;;;19.00;99.90;;;;;;4994438;28;20057;-73
2022/10/24 11:32:25;;;;;;;5.80;1.85;;;19.20;99.90;;;;;;4992635;28;20049;-72
2022/10/24 11:35:06;;;;;;;7.03;2.47;;;19.30;99.90;;;;;;4993948;28;20102;-73
2022/10/24 11:37:37;;;;;;;9.15;2.20;;;19.50;99.90;;;;;;4994680;28;20026;-73
2022/10/24 11:40:10;;;;;;;10.40;1.85;;;19.70;99.90;;;;;;4993763;28;20064;-72
2022/10/24 11:43:04;;;;;;;8.40;1.65;;;19.80;99.90;;;;;;4993036;28;20053;-74
2022/10/24 11:45:59;;;;;;;11.02;2.17;;;19.80;99.90;;;;;;4983480;28;20057;-73
2022/10/24 11:48:46;;;;;;;6.43;2.63;;;19.90;99.90;;;;;;5014190;28;20031;-74
2022/10/24 11:51:18;;;;;;;8.10;1.85;;;20.10;99.90;;;;;;5003334;28;20051;-71
2022/10/24 11:53:56;;;;;;;11.80;1.67;;;20.20;99.90;;;;;;4993691;28;20411;-74
2022/10/24 11:56:30;;;;;;;10.60;2.20;;;20.40;99.90;;;;;;4989305;28;20035;-71
2022/10/24 11:59:02;;;;;;;3.92;1.45;;;20.40;99.90;;;;;;4993627;28;20083;-71
2022/10/24 12:01:54;;;;;;;11.00;1.92;;;20.50;99.90;;;;;;4991714;28;20034;-72
2022/10/24 12:04:55;;;;;;;6.68;1.50;;;20.40;99.90;;;;;;4992113;28;20041;-71
2022/10/24 12:07:40;;;;;;;;;;;20.50;99.90;;;;;;4988085;28;20030;-71
2022/10/24 12:10:43;;;;;;;5.75;2.55;;;20.40;99.90;;;;;;4993125;28;19924;-72
2022/10/24 12:13:14;;;;;;;7.28;3.63;;;20.40;99.90;;;;;;4987363;28;20050;-72
2022/10/24 12:16:04;;;;;;;11.82;5.80;;;20.50;99.90;;;;;;4993734;28;20042;-72
2022/10/24 12:18:32;;;;;;;11.15;3.53;;;20.70;99.90;;;;;;4993743;28;20049;-72
2022/10/24 12:21:09;;;;;;;15.13;2.75;;;20.70;99.60;;;;;;4990280;28;20678;-73
2022/10/24 12:23:36;;;;;;;11.27;1.95;;;20.70;99.70;;;;;;5007651;28;20053;-71
2022/10/24 12:26:19;;;;;;;11.98;2.45;;;20.80;99.50;;;;;;4992700;28;20034;-71
2022/10/24 12:29:05;;;;;;;6.72;2.33;;;21.00;98.40;;;;;;4992821;28;20038;-74
2022/10/24 12:31:34;;;;;;;6.53;1.73;;;21.10;97.80;;;;;;4990822;28;20391;-72
2022/10/24 12:34:15;;;;;;;7.00;1.48;;;21.30;96.80;;;;;;4992749;28;20383;-71
2022/10/24 12:37:10;;;;;;;7.35;2.78;;;21.20;96.10;;;;;;4991545;28;20038;-72
2022/10/24 12:39:47;;;;;;;7.93;1.90;;;21.20;97.70;;;;;;4993150;28;20035;-71
2022/10/24 12:42:35;;;;;;;4.43;1.45;;;21.10;97.70;;;;;;4984457;28;20041;-71
2022/10/24 12:45:06;;;;;;;7.60;1.80;;;21.10;98.10;;;;;;4989580;28;20467;-72
2022/10/24 12:47:52;;;;;;;8.30;1.77;;;21.00;97.50;;;;;;4991841;28;20027;-72
2022/10/24 12:50:21;;;;;;;6.70;1.55;;;21.10;97.80;;;;;;4986099;28;20050;-73
2022/10/24 12:52:49;;;;;;;8.27;1.63;;;21.20;96.60;;;;;;4987658;28;20031;-72
2022/10/24 12:55:50;;;;;;;9.45;2.95;;;21.40;96.60;;;;;;4990323;28;20026;-71
2022/10/24 12:58:33;;;;;;;7.05;2.22;;;21.60;95.40;;;;;;4991825;28;20038;-73
2022/10/24 13:01:08;;;;;;;14.57;2.25;;;21.60;94.20;;;;;;4990340;28;20041;-72
2022/10/24 13:03:49;;;;;;;10.40;2.10;;;21.50;94.80;;;;;;4992497;28;20034;-72
2022/10/24 13:06:35;;;;;;;7.95;2.22;;;21.40;94.60;;;;;;4992346;28;20030;-72
2022/10/24 13:09:27;;;;;;;6.40;1.65;;;21.50;95.00;;;;;;4991427;28;20045;-71